createdAt,value
2023-01-12T00:00:07.965Z,98
2023-01-12T00:01:18.086Z,98
2023-01-12T00:02:28.199Z,98
2023-01-12T00:03:38.316Z,98
2023-01-12T00:04:48.431Z,97.9
2023-01-12T00:05:58.560Z,97.8
2023-01-12T00:07:08.680Z,98
2023-01-12T00:08:18.795Z,97.7
2023-01-12T00:09:28.878Z,97.8
2023-01-12T00:10:38.048Z,98
2023-01-12T00:11:48.160Z,97.9
2023-01-12T00:12:58.280Z,97.9
2023-01-12T00:14:08.401Z,97.7
2023-01-12T00:15:18.515Z,97.5
2023-01-12T00:16:28.636Z,97.4
2023-01-12T00:17:38.749Z,97.3
2023-01-12T00:18:48.867Z,97.1
2023-01-12T00:19:58.983Z,97.2
2023-01-12T00:21:09.105Z,97.2
2023-01-12T00:22:19.227Z,97
2023-01-12T00:23:29.315Z,96.8
2023-01-12T00:24:39.431Z,96.9
2023-01-12T00:25:48.598Z,96.7
2023-01-12T00:26:58.723Z,96.6
2023-01-12T00:28:08.828Z,96.5
2023-01-12T00:29:18.951Z,96.4
2023-01-12T00:30:29.043Z,96.4
2023-01-12T00:31:39.442Z,96.4
2023-01-12T00:32:48.322Z,96.1
2023-01-12T00:35:08.562Z,96.2
2023-01-12T00:36:18.686Z,96.3
2023-01-12T00:37:28.766Z,96.3
2023-01-12T00:38:38.923Z,96.7
2023-01-12T00:39:49.042Z,97.1
2023-01-12T00:40:59.149Z,97.6
2023-01-12T00:42:09.268Z,98.1
2023-01-12T00:43:19.391Z,98.4
2023-01-12T00:44:29.505Z,98.5
2023-01-12T00:45:39.628Z,98.7
2023-01-12T00:46:49.752Z,98.8
2023-01-12T00:47:58.877Z,98.9
2023-01-12T00:49:08.994Z,99
2023-01-12T00:50:19.083Z,99.1
2023-01-12T00:51:29.200Z,99
2023-01-12T00:52:39.321Z,98.9
2023-01-12T00:53:49.464Z,99.1
2023-01-12T00:54:59.586Z,99.2
2023-01-12T00:56:09.701Z,99.3
2023-01-12T00:57:19.823Z,99.4
2023-01-12T00:58:29.914Z,99.3
2023-01-12T00:59:40.032Z,99.4
2023-01-12T01:00:50.170Z,99.5
2023-01-12T01:02:00.287Z,99.6
2023-01-12T01:03:10.501Z,99.3
2023-01-12T01:04:20.645Z,99.4
2023-01-12T01:05:30.765Z,99.5
2023-01-12T01:06:40.887Z,99.4
2023-01-12T01:07:50.974Z,99.1
2023-01-12T01:09:01.132Z,98.9
2023-01-12T01:10:11.235Z,98.8
2023-01-12T01:11:21.357Z,99
2023-01-12T01:12:31.445Z,98.7
2023-01-12T01:13:41.593Z,98.5
2023-01-12T01:14:51.691Z,98.3
2023-01-12T01:16:01.839Z,98.1
2023-01-12T01:17:11.917Z,98.2
2023-01-12T01:18:22.192Z,98.1
2023-01-12T01:19:32.291Z,97.9
2023-01-12T01:20:42.391Z,97.8
2023-01-12T01:21:52.512Z,97.8
2023-01-12T01:23:02.673Z,97.8
2023-01-12T01:24:12.786Z,97.8
2023-01-12T01:25:22.864Z,97.9
2023-01-12T01:26:33.013Z,98
2023-01-12T01:27:43.133Z,98
2023-01-12T01:28:53.220Z,98.1
2023-01-12T01:30:03.365Z,98.1
2023-01-12T01:31:13.501Z,98.4
2023-01-12T01:32:23.604Z,98.6
2023-01-12T01:33:32.738Z,98.6
2023-01-12T01:34:42.829Z,98.8
2023-01-12T01:35:52.952Z,99.1
2023-01-12T01:37:03.064Z,99.1
2023-01-12T01:38:13.186Z,99
2023-01-12T01:39:23.326Z,99.1
2023-01-12T01:40:33.415Z,99.2
2023-01-12T01:41:43.567Z,99.2
2023-01-12T01:42:53.660Z,99.2
2023-01-12T01:44:03.785Z,99.1
2023-01-12T01:45:13.905Z,99.2
2023-01-12T01:46:24.040Z,99.3
2023-01-12T01:47:34.125Z,99.4
2023-01-12T01:48:43.261Z,99.5
2023-01-12T01:49:53.379Z,99.4
2023-01-12T01:51:03.529Z,99.5
2023-01-12T01:52:13.616Z,99.3
2023-01-12T01:53:23.768Z,99.2
2023-01-12T01:54:33.865Z,99.2
2023-01-12T01:55:43.963Z,99.1
2023-01-12T01:56:54.089Z,98.8
2023-01-12T01:58:04.211Z,98.7
2023-01-12T01:59:14.354Z,98.4
2023-01-12T02:00:24.473Z,98.4
2023-01-12T02:01:34.555Z,98.3
2023-01-12T02:02:44.686Z,98.2
2023-01-12T02:03:53.846Z,98.2
2023-01-12T02:05:04.223Z,98
2023-01-12T02:06:14.041Z,98.1
2023-01-12T02:07:24.171Z,98.2
2023-01-12T02:08:34.293Z,98.1
2023-01-12T02:09:44.401Z,98.1
2023-01-12T02:10:54.543Z,98.2
2023-01-12T02:12:04.673Z,98.1
2023-01-12T02:13:14.768Z,97.9
2023-01-12T02:14:24.906Z,97.8
2023-01-12T02:15:35.027Z,97.9
2023-01-12T02:16:45.146Z,98
2023-01-12T02:17:55.251Z,98.2
2023-01-12T02:19:04.388Z,98.3
2023-01-12T02:20:14.483Z,98.5
2023-01-12T02:21:24.635Z,98.4
2023-01-12T02:22:34.740Z,98.4
2023-01-12T02:23:44.876Z,98.4
2023-01-12T02:24:54.984Z,98.1
2023-01-12T02:26:05.092Z,98.1
2023-01-12T02:27:15.214Z,98.3
2023-01-12T02:28:25.331Z,98.3
2023-01-12T02:29:35.420Z,98.2
2023-01-12T02:30:45.549Z,98
2023-01-12T02:31:55.701Z,97.8
2023-01-12T02:33:05.776Z,97.7
2023-01-12T02:34:14.944Z,97.8
2023-01-12T02:35:25.061Z,97.6
2023-01-12T02:36:35.149Z,97.5
2023-01-12T02:37:45.290Z,97.6
2023-01-12T02:38:55.421Z,97.4
2023-01-12T02:40:05.526Z,97.3
2023-01-12T02:41:15.621Z,97.3
2023-01-12T02:42:25.766Z,97.2
2023-01-12T02:43:35.851Z,97
2023-01-12T02:44:45.970Z,96.8
2023-01-12T02:45:56.093Z,96.7
2023-01-12T02:47:06.217Z,96.6
2023-01-12T02:48:16.353Z,96.9
2023-01-12T02:49:25.466Z,97
2023-01-12T02:50:35.614Z,97.2
2023-01-12T02:51:45.730Z,97.2
2023-01-12T02:52:55.858Z,97
2023-01-12T02:54:05.960Z,96.7
2023-01-12T02:55:16.081Z,96.7
2023-01-12T02:56:26.171Z,96.8
2023-01-12T02:57:36.290Z,96.9
2023-01-12T02:58:46.419Z,96.7
2023-01-12T02:59:56.523Z,96.8
2023-01-12T03:01:05.702Z,96.7
2023-01-12T03:02:14.829Z,96.6
2023-01-12T03:03:23.942Z,96.6
2023-01-12T03:04:33.076Z,96.7
2023-01-12T03:05:43.194Z,96.6
2023-01-12T03:06:53.318Z,96.5
2023-01-12T03:09:13.584Z,96.7
2023-01-12T03:10:23.706Z,96.8
2023-01-12T03:11:33.788Z,96.7
2023-01-12T03:12:43.909Z,96.7
2023-01-12T03:13:54.050Z,96.4
2023-01-12T03:15:04.167Z,96.6
2023-01-12T03:16:14.289Z,96.6
2023-01-12T03:17:24.416Z,96.5
2023-01-12T03:18:34.493Z,96.6
2023-01-12T03:19:43.637Z,96.7
2023-01-12T03:20:53.758Z,96.6
2023-01-12T03:22:03.900Z,96.7
2023-01-12T03:23:14.021Z,96.6
2023-01-12T03:24:24.113Z,96.3
2023-01-12T03:25:34.252Z,96.4
2023-01-12T03:26:44.369Z,96.4
2023-01-12T03:27:54.489Z,96.6
2023-01-12T03:29:04.617Z,96.7
2023-01-12T03:30:14.703Z,96.9
2023-01-12T03:31:24.855Z,97
2023-01-12T03:32:34.959Z,97.2
2023-01-12T03:33:45.088Z,97.2
2023-01-12T03:34:54.223Z,97.3
2023-01-12T03:36:04.323Z,97.4
2023-01-12T03:37:14.447Z,97.6
2023-01-12T03:38:24.566Z,97.6
2023-01-12T03:39:34.689Z,97.6
2023-01-12T03:40:44.773Z,97.6
2023-01-12T03:41:54.898Z,97.6
2023-01-12T03:43:05.033Z,97.8
2023-01-12T03:44:15.155Z,98
2023-01-12T03:45:25.238Z,98.3
2023-01-12T03:46:35.388Z,98.8
2023-01-12T03:47:45.481Z,99.1
2023-01-12T03:48:55.600Z,99.3
2023-01-12T03:50:04.769Z,99.6
2023-01-12T03:51:14.875Z,99.7
2023-01-12T03:52:25.001Z,99.9
2023-01-12T03:53:35.121Z,100
2023-01-12T03:54:45.228Z,99.9
2023-01-12T03:55:55.345Z,100
2023-01-12T03:57:05.474Z,100
2023-01-12T03:58:15.552Z,100
2023-01-12T03:59:25.701Z,100
2023-01-12T04:00:35.823Z,100
2023-01-12T04:01:45.938Z,100
2023-01-12T04:02:56.053Z,100
2023-01-12T04:04:06.176Z,100
2023-01-12T04:05:15.311Z,100
2023-01-12T04:06:25.433Z,100
2023-01-12T04:07:35.519Z,100
2023-01-12T04:08:45.672Z,100
2023-01-12T04:09:55.779Z,100
2023-01-12T04:11:05.907Z,100
2023-01-12T04:12:16.030Z,100
2023-01-12T04:13:26.150Z,99.7
2023-01-12T04:14:36.256Z,99.7
2023-01-12T04:15:46.374Z,99.5
2023-01-12T04:16:56.471Z,99.2
2023-01-12T04:18:06.578Z,99.1
2023-01-12T04:19:16.729Z,98.8
2023-01-12T04:20:25.824Z,98.9
2023-01-12T04:21:35.946Z,98.4
2023-01-12T04:22:46.060Z,98.1
2023-01-12T04:23:56.191Z,98.4
2023-01-12T04:25:06.338Z,98.4
2023-01-12T04:26:16.432Z,98.3
2023-01-12T04:27:25.592Z,98.2
2023-01-12T04:28:35.674Z,98.4
2023-01-12T04:29:45.797Z,98.7
2023-01-12T04:30:55.942Z,98.4
2023-01-12T04:32:06.000Z,98.6
2023-01-12T04:33:16.148Z,98.8
2023-01-12T04:34:26.294Z,99
2023-01-12T04:35:36.422Z,98.8
2023-01-12T04:36:46.498Z,98.7
2023-01-12T04:37:56.625Z,98.5
2023-01-12T04:40:16.887Z,99
2023-01-12T04:41:26.973Z,99.2
2023-01-12T04:42:37.244Z,99.4
2023-01-12T04:43:47.362Z,99.6
2023-01-12T04:44:57.454Z,100
2023-01-12T04:46:07.603Z,100
2023-01-12T04:47:17.694Z,100
2023-01-12T04:48:27.843Z,100
2023-01-12T04:49:37.919Z,100
2023-01-12T04:50:48.067Z,100
2023-01-12T04:51:58.158Z,99.7
2023-01-12T04:53:08.317Z,100
2023-01-12T04:54:18.390Z,100
2023-01-12T04:55:28.513Z,100
2023-01-12T04:56:38.669Z,100
2023-01-12T04:57:47.771Z,100
2023-01-12T04:58:57.912Z,100
2023-01-12T05:01:18.123Z,100
2023-01-12T05:02:28.235Z,100
2023-01-12T05:03:38.356Z,100
2023-01-12T05:04:48.483Z,100
2023-01-12T05:05:58.588Z,100
2023-01-12T05:07:08.750Z,100
2023-01-12T05:08:18.855Z,100
2023-01-12T05:09:28.973Z,100
2023-01-12T05:10:39.059Z,99.7
2023-01-12T05:11:49.180Z,99.8
2023-01-12T05:12:58.310Z,99.9
2023-01-12T05:14:08.477Z,99.9
2023-01-12T05:15:18.581Z,99.7
2023-01-12T05:16:28.699Z,99.8
2023-01-12T05:17:38.825Z,99.7
2023-01-12T05:18:48.933Z,99.4
2023-01-12T05:19:59.058Z,99.4
2023-01-12T05:22:19.266Z,99.6
2023-01-12T05:23:29.382Z,99.5
2023-01-12T05:24:39.502Z,99.4
2023-01-12T05:25:49.656Z,99.3
2023-01-12T05:26:59.760Z,99.5
2023-01-12T05:28:08.907Z,99.6
2023-01-12T05:29:19.012Z,99.5
2023-01-12T05:30:29.131Z,99.8
2023-01-12T05:31:39.221Z,99.9
2023-01-12T05:32:49.352Z,99.9
2023-01-12T05:33:59.452Z,99.9
2023-01-12T05:35:09.602Z,100
2023-01-12T05:36:19.702Z,99.9
2023-01-12T05:37:29.807Z,99.6
2023-01-12T05:38:39.926Z,99.5
2023-01-12T05:39:50.051Z,99.3
2023-01-12T05:41:00.170Z,99.1
2023-01-12T05:42:10.281Z,99.2
2023-01-12T05:43:19.422Z,99.2
2023-01-12T05:44:29.567Z,99
2023-01-12T05:45:39.654Z,98.8
2023-01-12T05:47:59.886Z,98.7
2023-01-12T05:49:10.036Z,98.9
2023-01-12T05:50:20.157Z,98.7
2023-01-12T05:51:30.278Z,98.7
2023-01-12T05:52:40.358Z,98.7
2023-01-12T05:53:50.479Z,98.8
2023-01-12T05:55:00.629Z,98.9
2023-01-12T05:56:10.721Z,98.7
2023-01-12T05:57:20.870Z,99.2
2023-01-12T05:58:31.079Z,99.5
2023-01-12T05:59:41.187Z,99.6
2023-01-12T06:00:51.341Z,99.6
2023-01-12T06:02:01.440Z,99.8
2023-01-12T06:03:11.544Z,100
2023-01-12T06:04:21.672Z,100
2023-01-12T06:05:31.821Z,100
2023-01-12T06:06:41.941Z,100
2023-01-12T06:07:52.017Z,100
2023-01-12T06:09:02.170Z,100
2023-01-12T06:10:12.282Z,100
2023-01-12T06:11:22.376Z,99.9
2023-01-12T06:12:32.528Z,100
2023-01-12T06:13:41.654Z,100
2023-01-12T06:14:51.775Z,99.9
2023-01-12T06:16:01.899Z,99.9
2023-01-12T06:17:12.006Z,99.7
2023-01-12T06:18:22.140Z,99.8
2023-01-12T06:19:32.255Z,100
2023-01-12T06:20:42.334Z,100
2023-01-12T06:21:52.456Z,100
2023-01-12T06:23:02.615Z,100
2023-01-12T06:24:12.716Z,99.9
2023-01-12T06:25:22.804Z,99.9
2023-01-12T06:26:32.953Z,99.9
2023-01-12T06:27:43.067Z,100
2023-01-12T06:28:52.170Z,99.8
2023-01-12T06:30:02.320Z,99.9
2023-01-12T06:32:22.574Z,99.7
2023-01-12T06:33:32.683Z,99.8
2023-01-12T06:34:42.761Z,99.5
2023-01-12T06:35:52.917Z,99.5
2023-01-12T06:37:03.039Z,99.5
2023-01-12T06:39:23.234Z,99.3
2023-01-12T06:40:33.352Z,99.2
2023-01-12T06:41:43.475Z,99.3
2023-01-12T06:42:53.597Z,99.3
2023-01-12T06:44:03.020Z,99.5
2023-01-12T06:45:12.875Z,99.5
2023-01-12T06:46:23.004Z,99.4
2023-01-12T06:47:32.140Z,99.5
2023-01-12T06:48:41.272Z,99.3
2023-01-12T06:49:50.420Z,99.3
2023-01-12T06:50:59.548Z,99.3
2023-01-12T06:52:09.665Z,99.1
2023-01-12T06:53:19.789Z,99
2023-01-12T06:54:29.906Z,99.2
2023-01-12T06:55:40.025Z,99.3
2023-01-12T06:56:50.142Z,99.3
2023-01-12T06:58:00.258Z,99.3
2023-01-12T06:59:10.376Z,99.3
2023-01-12T07:00:20.496Z,99.3
2023-01-12T07:01:30.609Z,99.5
2023-01-12T07:02:40.732Z,99.3
2023-01-12T07:03:50.841Z,99.3
2023-01-12T07:05:00.973Z,99.3
2023-01-12T07:06:10.107Z,99.2
2023-01-12T07:07:20.231Z,99.1
2023-01-12T07:08:30.338Z,99.2
2023-01-12T07:09:40.462Z,99.1
2023-01-12T07:10:50.588Z,99
2023-01-12T07:12:00.687Z,99
2023-01-12T07:13:10.814Z,99.2
2023-01-12T07:14:20.942Z,99
2023-01-12T07:15:31.045Z,99.2
2023-01-12T07:16:41.168Z,99.2
2023-01-12T07:17:51.296Z,99
2023-01-12T07:19:01.397Z,99.3
2023-01-12T07:20:11.507Z,99.3
2023-01-12T07:21:20.654Z,99.4
2023-01-12T07:22:30.781Z,99.3
2023-01-12T07:23:40.884Z,99.1
2023-01-12T07:24:50.996Z,99.1
2023-01-12T07:26:01.118Z,98.8
2023-01-12T07:27:11.231Z,99
2023-01-12T07:28:21.366Z,99.1
2023-01-12T07:29:31.476Z,99.1
2023-01-12T07:30:41.588Z,99.3
2023-01-12T07:31:51.714Z,99.3
2023-01-12T07:33:01.827Z,99.5
2023-01-12T07:35:22.061Z,99.5
2023-01-12T07:36:31.212Z,99.5
2023-01-12T07:37:41.309Z,99.5
2023-01-12T07:38:51.428Z,99.3
2023-01-12T07:40:01.566Z,99.4
2023-01-12T07:42:21.793Z,99.6
2023-01-12T07:43:31.900Z,99.6
2023-01-12T07:44:42.023Z,99.7
2023-01-12T07:45:52.145Z,99.8
2023-01-12T07:47:02.259Z,99.7
2023-01-12T07:48:12.387Z,99.7
2023-01-12T07:49:22.507Z,99.6
2023-01-12T07:50:32.623Z,99.8
2023-01-12T07:51:41.758Z,99.9
2023-01-12T07:52:51.873Z,100
2023-01-12T07:54:01.987Z,100
2023-01-12T07:55:12.108Z,100
2023-01-12T07:56:22.212Z,100
2023-01-12T07:57:32.337Z,100
2023-01-12T07:58:42.468Z,100
2023-01-12T07:59:52.577Z,100
2023-01-12T08:01:02.695Z,100
2023-01-12T08:02:12.827Z,100
2023-01-12T08:03:22.931Z,100
2023-01-12T08:04:33.051Z,100
2023-01-12T08:05:43.173Z,100
2023-01-12T08:06:52.312Z,100
2023-01-12T08:08:02.425Z,100
2023-01-12T08:09:12.533Z,100
2023-01-12T08:10:22.667Z,100
2023-01-12T08:11:32.774Z,100
2023-01-12T08:12:42.899Z,100
2023-01-12T08:13:52.997Z,100
2023-01-12T08:15:03.141Z,100
2023-01-12T08:16:13.245Z,100
2023-01-12T08:17:23.368Z,100
2023-01-12T08:18:33.485Z,100
2023-01-12T08:19:43.599Z,100
2023-01-12T08:20:53.712Z,100
2023-01-12T08:22:02.846Z,100
2023-01-12T08:23:12.976Z,100
2023-01-12T08:24:23.101Z,100
2023-01-12T08:25:33.208Z,100
2023-01-12T08:26:43.329Z,100
2023-01-12T08:27:53.458Z,100
2023-01-12T08:29:03.562Z,100
2023-01-12T08:30:13.684Z,100
2023-01-12T08:31:23.807Z,100
2023-01-12T08:32:33.921Z,100
2023-01-12T08:33:44.044Z,100
2023-01-12T08:34:54.146Z,100
2023-01-12T08:36:04.271Z,100
2023-01-12T08:37:13.404Z,100
2023-01-12T08:38:23.526Z,100
2023-01-12T08:39:33.649Z,100
2023-01-12T08:40:43.760Z,100
2023-01-12T08:41:53.870Z,100
2023-01-12T08:43:04.000Z,100
2023-01-12T08:44:14.126Z,100
2023-01-12T08:45:24.229Z,100
2023-01-12T08:46:34.349Z,100
2023-01-12T08:47:44.469Z,100
2023-01-12T08:48:54.587Z,100
2023-01-12T08:50:04.699Z,100
2023-01-12T08:51:14.823Z,100
2023-01-12T08:52:23.953Z,100
2023-01-12T08:53:34.072Z,100
2023-01-12T08:54:44.196Z,100
2023-01-12T08:55:54.323Z,100
2023-01-12T08:57:04.416Z,100
2023-01-12T08:58:14.556Z,100
2023-01-12T08:59:24.660Z,100
2023-01-12T09:00:34.770Z,100
2023-01-12T09:01:44.899Z,100
2023-01-12T09:02:55.020Z,100
2023-01-12T09:04:05.125Z,100
2023-01-12T09:05:15.248Z,100
2023-01-12T09:06:25.377Z,100
2023-01-12T09:07:34.510Z,100
2023-01-12T09:08:44.629Z,100
2023-01-12T09:09:54.745Z,100
2023-01-12T09:11:04.858Z,100
2023-01-12T09:12:14.982Z,100
2023-01-12T09:13:25.096Z,100
2023-01-12T09:14:35.221Z,100
2023-01-12T09:15:45.340Z,100
2023-01-12T09:16:55.445Z,100
2023-01-12T09:18:05.575Z,100
2023-01-12T09:19:15.684Z,100
2023-01-12T09:20:25.806Z,100
2023-01-12T09:21:35.912Z,100
2023-01-12T09:22:45.053Z,100
2023-01-12T09:23:55.176Z,100
2023-01-12T09:25:05.301Z,100
2023-01-12T09:27:25.540Z,100
2023-01-12T09:28:35.644Z,100
2023-01-12T09:29:45.752Z,100
2023-01-12T09:30:55.881Z,100
2023-01-12T09:32:05.996Z,100
2023-01-12T09:34:26.238Z,100
2023-01-12T09:35:36.359Z,100
2023-01-12T09:36:46.480Z,100
2023-01-12T09:37:55.604Z,100
2023-01-12T09:39:05.728Z,100
2023-01-12T09:40:15.849Z,100
2023-01-12T09:41:25.955Z,100
2023-01-12T09:42:36.080Z,100
2023-01-12T09:43:46.196Z,100
2023-01-12T09:44:56.302Z,100
2023-01-12T09:46:06.424Z,100
2023-01-12T09:47:16.554Z,100
2023-01-12T09:48:26.676Z,100
2023-01-12T09:49:36.797Z,100
2023-01-12T09:50:46.905Z,100
2023-01-12T09:51:57.012Z,99.9
2023-01-12T09:53:06.149Z,100
2023-01-12T09:54:16.271Z,100
2023-01-12T09:55:26.396Z,99.8
2023-01-12T09:56:36.494Z,99.9
2023-01-12T09:57:46.636Z,99.3
2023-01-12T09:58:56.741Z,99.5
2023-01-12T10:00:06.846Z,99.1
2023-01-12T10:01:16.985Z,99
2023-01-12T10:02:27.103Z,98.9
2023-01-12T10:03:37.221Z,98.8
2023-01-12T10:04:47.332Z,98.8
2023-01-12T10:05:57.446Z,98.6
2023-01-12T10:07:07.565Z,98.8
2023-01-12T10:09:26.821Z,98.7
2023-01-12T10:10:36.948Z,99
2023-01-12T10:11:47.052Z,99
2023-01-12T10:12:57.160Z,98.8
2023-01-12T10:14:07.286Z,98.7
2023-01-12T10:16:27.536Z,99
2023-01-12T10:17:37.642Z,98.9
2023-01-12T10:18:47.761Z,98.5
2023-01-12T10:19:57.867Z,98.6
2023-01-12T10:21:07.989Z,98.4
2023-01-12T10:22:18.124Z,98.6
2023-01-12T10:23:27.252Z,98.6
2023-01-12T10:24:37.371Z,98.6
2023-01-12T10:25:47.483Z,98.4
2023-01-12T10:26:57.591Z,98.4
2023-01-12T10:28:07.724Z,98.3
2023-01-12T10:29:17.835Z,98.2
2023-01-12T10:30:27.951Z,98.4
2023-01-12T10:31:38.084Z,98.2
2023-01-12T10:32:48.180Z,98.5
2023-01-12T10:33:58.300Z,98.5
2023-01-12T10:35:08.429Z,98.4
2023-01-12T10:36:18.554Z,98.2
2023-01-12T10:37:28.678Z,98.1
2023-01-12T10:38:37.812Z,98.3
2023-01-12T10:39:47.905Z,97.9
2023-01-12T10:40:58.041Z,98
2023-01-12T10:42:08.150Z,98.3
2023-01-12T10:43:18.266Z,98.1
2023-01-12T10:44:28.392Z,98.2
2023-01-12T10:45:38.517Z,98.3
2023-01-12T10:46:48.618Z,98.6
2023-01-12T10:47:58.738Z,98.9
2023-01-12T10:49:08.845Z,99.1
2023-01-12T10:50:18.973Z,99.2
2023-01-12T10:51:29.096Z,99.6
2023-01-12T10:52:39.224Z,99.7
2023-01-12T10:53:48.348Z,100
2023-01-12T10:54:58.469Z,100
2023-01-12T10:56:08.597Z,100
2023-01-12T10:57:18.697Z,100
2023-01-12T10:58:28.817Z,100
2023-01-12T10:59:38.949Z,100
2023-01-12T11:00:49.055Z,100
2023-01-12T11:01:59.167Z,100
2023-01-12T11:03:09.295Z,100
2023-01-12T11:04:19.405Z,100
2023-01-12T11:05:29.515Z,100
2023-01-12T11:06:39.644Z,100
2023-01-12T11:07:49.773Z,100
2023-01-12T11:08:58.892Z,100
2023-01-12T11:10:09.018Z,100
2023-01-12T11:11:19.123Z,100
2023-01-12T11:12:29.249Z,100
2023-01-12T11:13:39.369Z,100
2023-01-12T11:14:49.475Z,100
2023-01-12T11:15:59.603Z,100
2023-01-12T11:17:09.730Z,100
2023-01-12T11:18:19.853Z,100
2023-01-12T11:19:29.956Z,100
2023-01-12T11:20:40.073Z,100
2023-01-12T11:21:50.182Z,100
2023-01-12T11:23:00.297Z,100
2023-01-12T11:24:10.546Z,100
2023-01-12T11:25:20.664Z,100
2023-01-12T11:26:30.778Z,100
2023-01-12T11:27:40.918Z,100
2023-01-12T11:28:51.012Z,100
2023-01-12T11:30:01.134Z,100
2023-01-12T11:31:11.257Z,100
2023-01-12T11:32:21.380Z,100
2023-01-12T11:33:31.492Z,100
2023-01-12T11:34:41.597Z,100
2023-01-12T11:35:51.718Z,100
2023-01-12T11:37:01.845Z,100
2023-01-12T11:38:11.963Z,100
2023-01-12T11:39:21.101Z,100
2023-01-12T11:40:31.221Z,100
2023-01-12T11:41:41.349Z,100
2023-01-12T11:42:51.453Z,100
2023-01-12T11:44:01.569Z,100
2023-01-12T11:45:11.702Z,100
2023-01-12T11:46:21.819Z,100
2023-01-12T11:47:31.926Z,100
2023-01-12T11:48:42.047Z,100
2023-01-12T11:49:52.148Z,100
2023-01-12T11:51:02.269Z,100
2023-01-12T11:52:12.394Z,100
2023-01-12T11:53:22.523Z,100
2023-01-12T11:54:31.651Z,100
2023-01-12T11:55:41.778Z,100
2023-01-12T11:56:51.874Z,100
2023-01-12T11:58:02.002Z,100
2023-01-12T11:59:12.105Z,100
2023-01-12T12:00:22.248Z,100
2023-01-12T12:01:32.364Z,100
2023-01-12T12:02:42.469Z,100
2023-01-12T12:03:52.589Z,100
2023-01-12T12:05:02.718Z,100
2023-01-12T12:06:12.811Z,100
2023-01-12T12:07:22.946Z,100
2023-01-12T12:08:33.062Z,100
2023-01-12T12:09:42.195Z,100
2023-01-12T12:10:52.315Z,100
2023-01-12T12:12:02.436Z,100
2023-01-12T12:13:12.538Z,100
2023-01-12T12:14:22.676Z,100
2023-01-12T12:15:32.797Z,100
2023-01-12T12:16:41.934Z,100
2023-01-12T12:17:52.041Z,100
2023-01-12T12:19:02.168Z,100
2023-01-12T12:20:12.283Z,100
2023-01-12T12:21:22.398Z,100
2023-01-12T12:22:32.524Z,100
2023-01-12T12:23:42.630Z,100
2023-01-12T12:24:52.750Z,100
2023-01-12T12:26:02.875Z,100
2023-01-12T12:27:12.972Z,100
2023-01-12T12:28:23.114Z,100
2023-01-12T12:29:33.233Z,100
2023-01-12T12:30:43.354Z,100
2023-01-12T12:31:52.473Z,100
2023-01-12T12:33:02.604Z,100
2023-01-12T12:34:12.710Z,100
2023-01-12T12:35:22.833Z,100
2023-01-12T12:36:32.958Z,100
2023-01-12T12:37:43.065Z,100
2023-01-12T12:38:53.170Z,100
2023-01-12T12:40:03.299Z,100
2023-01-12T12:41:13.414Z,100
2023-01-12T12:42:23.549Z,100
2023-01-12T12:43:33.656Z,100
2023-01-12T12:44:43.754Z,100
2023-01-12T12:45:53.896Z,100
2023-01-12T12:47:03.009Z,100
2023-01-12T12:48:13.136Z,100
2023-01-12T12:49:23.269Z,100
2023-01-12T12:50:33.370Z,100
2023-01-12T12:51:43.503Z,100
2023-01-12T12:52:53.603Z,100
2023-01-12T12:54:03.727Z,99.9
2023-01-12T12:55:13.846Z,100
2023-01-12T12:56:23.969Z,100
2023-01-12T12:57:34.093Z,99.8
2023-01-12T12:58:44.185Z,99.7
2023-01-12T12:59:54.313Z,99.5
2023-01-12T13:01:04.434Z,99.2
2023-01-12T13:02:13.565Z,99
2023-01-12T13:04:33.805Z,98.8
2023-01-12T13:05:43.906Z,98.7
2023-01-12T13:06:54.052Z,98.5
2023-01-12T13:08:04.158Z,98.3
2023-01-12T13:09:14.260Z,98.3
2023-01-12T13:10:24.408Z,98.5
2023-01-12T13:11:34.511Z,98.6
2023-01-12T13:12:44.626Z,98.5
2023-01-12T13:13:54.732Z,98.4
2023-01-12T13:15:04.863Z,98.2
2023-01-12T13:16:14.986Z,98.3
2023-01-12T13:18:34.226Z,98.4
2023-01-12T13:19:44.351Z,98.3
2023-01-12T13:20:54.472Z,98.4
2023-01-12T13:22:04.578Z,98.5
2023-01-12T13:23:14.710Z,98.7
2023-01-12T13:24:24.831Z,98.7
2023-01-12T13:25:34.938Z,98.6
2023-01-12T13:26:45.069Z,98.4
2023-01-12T13:27:55.178Z,98.9
2023-01-12T13:29:05.293Z,99.6
2023-01-12T13:30:15.416Z,99.7
2023-01-12T13:31:25.542Z,99.8
2023-01-12T13:32:34.663Z,100
2023-01-12T13:33:44.786Z,100
2023-01-12T13:34:54.914Z,100
2023-01-12T13:36:05.005Z,100
2023-01-12T13:37:15.138Z,100
2023-01-12T13:38:25.240Z,100
2023-01-12T13:39:35.372Z,100
2023-01-12T13:40:45.494Z,100
2023-01-12T13:41:55.604Z,100
2023-01-12T13:43:05.709Z,100
2023-01-12T13:44:15.836Z,100
2023-01-12T13:45:25.959Z,100
2023-01-12T13:46:36.079Z,100
2023-01-12T13:47:45.218Z,100
2023-01-12T13:48:55.343Z,100
2023-01-12T13:50:05.463Z,100
2023-01-12T13:51:15.565Z,100
2023-01-12T13:52:25.699Z,100
2023-01-12T13:53:35.805Z,100
2023-01-12T13:54:45.923Z,100
2023-01-12T13:55:56.042Z,100
2023-01-12T13:57:06.169Z,100
2023-01-12T13:58:16.286Z,100
2023-01-12T13:59:26.399Z,100
2023-01-12T14:00:36.521Z,100
2023-01-12T14:01:46.626Z,100
2023-01-12T14:02:55.773Z,100
2023-01-12T14:04:05.893Z,100
2023-01-12T14:05:16.000Z,100
2023-01-12T14:06:26.113Z,100
2023-01-12T14:07:36.226Z,100
2023-01-12T14:08:46.352Z,100
2023-01-12T14:09:56.470Z,100
2023-01-12T14:11:06.596Z,100
2023-01-12T14:12:16.701Z,100
2023-01-12T14:13:26.818Z,100
2023-01-12T14:14:36.941Z,100
2023-01-12T14:15:47.040Z,100
2023-01-12T14:16:57.180Z,100
2023-01-12T14:18:06.317Z,100
2023-01-12T14:19:16.425Z,100
2023-01-12T14:20:26.546Z,100
2023-01-12T14:21:36.668Z,100
2023-01-12T14:22:46.775Z,100
2023-01-12T14:23:56.895Z,100
2023-01-12T14:25:07.019Z,100
2023-01-12T14:26:17.131Z,100
2023-01-12T14:27:27.236Z,100
2023-01-12T14:28:37.361Z,100
2023-01-12T14:29:47.493Z,100
2023-01-12T14:30:57.599Z,100
2023-01-12T14:32:07.725Z,100
2023-01-12T14:33:17.826Z,99.6
2023-01-12T14:34:26.985Z,99.3
2023-01-12T14:35:37.106Z,99.5
2023-01-12T14:36:47.209Z,99.5
2023-01-12T14:37:57.326Z,99.5
2023-01-12T14:39:07.431Z,99.5
2023-01-12T14:40:17.581Z,99.4
2023-01-12T14:42:37.797Z,98.7
2023-01-12T14:43:47.917Z,98.6
2023-01-12T14:44:58.027Z,98.1
2023-01-12T14:46:08.168Z,97.8
2023-01-12T14:47:18.273Z,97.6
2023-01-12T14:48:28.397Z,97.2
2023-01-12T14:49:37.530Z,96.8
2023-01-12T14:50:47.640Z,96.6
2023-01-12T14:51:57.745Z,95.8
2023-01-12T14:53:07.886Z,95.3
2023-01-12T14:54:17.978Z,95.1
2023-01-12T14:55:28.120Z,94.9
2023-01-12T14:56:38.230Z,94.7
2023-01-12T14:57:48.359Z,95.1
2023-01-12T14:58:58.479Z,95
2023-01-12T15:00:08.586Z,95
2023-01-12T15:01:18.708Z,95
2023-01-12T15:02:28.826Z,94.7
2023-01-12T15:03:38.954Z,94.4
2023-01-12T15:04:48.086Z,94.6
2023-01-12T15:05:58.194Z,94.3
2023-01-12T15:07:08.303Z,94.2
2023-01-12T15:08:18.427Z,94
2023-01-12T15:09:28.554Z,94
2023-01-12T15:10:38.672Z,94.4
2023-01-12T15:11:48.794Z,94.1
2023-01-12T15:12:58.899Z,94
2023-01-12T15:14:09.017Z,93.7
2023-01-12T15:15:19.128Z,93.5
2023-01-12T15:16:28.274Z,93.8
2023-01-12T15:17:37.420Z,93.8
2023-01-12T15:18:46.567Z,93.7
2023-01-12T15:19:55.688Z,93.9
2023-01-12T15:21:05.811Z,94
2023-01-12T15:22:15.940Z,94
2023-01-12T15:23:26.058Z,93.9
2023-01-12T15:24:36.159Z,93.8
2023-01-12T15:25:46.279Z,93.9
2023-01-12T15:26:56.405Z,93.7
2023-01-12T15:28:06.524Z,93.3
2023-01-12T15:29:16.646Z,91.8
2023-01-12T15:31:36.878Z,90.8
2023-01-12T15:32:46.995Z,90.5
2023-01-12T15:33:57.116Z,90.1
2023-01-12T15:35:06.249Z,90.2
2023-01-12T15:36:16.371Z,89.8
2023-01-12T15:37:26.476Z,88.7
2023-01-12T15:38:36.597Z,89.2
2023-01-12T15:39:46.723Z,88.6
2023-01-12T15:40:56.827Z,89.4
2023-01-12T15:42:06.955Z,89
2023-01-12T15:43:17.059Z,89
2023-01-12T15:45:37.281Z,89.3
2023-01-12T15:46:47.422Z,89.2
2023-01-12T15:47:57.526Z,89.5
2023-01-12T15:49:07.654Z,89.5
2023-01-12T15:50:16.789Z,89.6
2023-01-12T15:51:26.918Z,89.9
2023-01-12T15:52:37.030Z,90
2023-01-12T15:53:47.150Z,90.1
2023-01-12T15:54:57.254Z,90.2
2023-01-12T15:56:07.381Z,90.2
2023-01-12T15:57:17.485Z,90.5
2023-01-12T15:58:27.608Z,90.6
2023-01-12T15:59:37.717Z,91
2023-01-12T16:00:47.844Z,91.4
2023-01-12T16:01:57.974Z,91.4
2023-01-12T16:03:08.066Z,91.4
2023-01-12T16:04:18.201Z,91.2
2023-01-12T16:05:27.349Z,91
2023-01-12T16:06:37.450Z,90.8
2023-01-12T16:07:47.576Z,90.4
2023-01-12T16:08:57.691Z,90.4
2023-01-12T16:10:07.810Z,90.4